»·PEaware :: PRD69 KSAC-KBUR

PRD69 :: KSAC-KBUR

FLIGHT INFORMATION

Flight Status: Arrived
Operator: Unknown
More flights by this operator :: More flights under this callsign
Pilot: Andrew J. (13363)
Aircraft: GULFSTREAM G-1159C GULFSTREAM 4
(GLF4)
More flights by this aircraft type
Origin: KSAC Sacramento Executive
United States
Destination: KBUR Bob Hope-Burbank
United States
More flights between these airports :: More routes between these airports
Route: SAC J65 EHF WEESL1
File this flight plan on PilotEdge
Remarks:
Altitude:
(Current/Filed)
37,000ft
Speed:
(Current/Filed)
310kts
Departed: 08-Aug-18 08:51 PM
Arrived: 08-Aug-18 09:43 PM
Distance/Time
Traveled:
300nm/0:52
Distance/Time
To Go:
Arrived

Flight Plot

Page will automatically refresh every two minutes.

Flight plan parsing failed; only flown route is shown


Map Options




Map Legend


Flown Route
Filed Route
Departure Airport
Arrival Airport
Navaid (VOR, NDB)
Fix

Horizontal Profiles

Position Reports

Time Latitude Longitude Heading Altitude Ground
Speed
08-Aug-18 20:42 38.514944 -121.499544 137 31ft 0kts
08-Aug-18 20:43 38.514944 -121.499544 137 31ft 0kts
08-Aug-18 20:44 38.514944 -121.499544 137 31ft 0kts
08-Aug-18 20:45 38.514944 -121.499544 137 31ft 0kts
08-Aug-18 20:46 38.514944 -121.499544 137 31ft 0kts
08-Aug-18 20:47 38.514944 -121.499544 137 31ft 0kts
08-Aug-18 20:48 38.514957 -121.498981 119 31ft 3kts
08-Aug-18 20:49 38.513753 -121.496588 126 31ft 11kts
08-Aug-18 20:50 38.515395 -121.493945 33 31ft 13kts
08-Aug-18 20:51 38.517508 -121.492174 32 31ft 19kts
08-Aug-18 20:52 38.516939 -121.491031 213 31ft 70kts
08-Aug-18 20:53 38.470013 -121.508043 162 1937ft 311kts
08-Aug-18 20:54 38.390478 -121.478939 164 5554ft 276kts
08-Aug-18 20:55 38.328917 -121.419628 138 9539ft 292kts
08-Aug-18 20:56 38.265568 -121.347963 138 13100ft 329kts
08-Aug-18 20:57 38.193265 -121.265792 138 16297ft 367kts
08-Aug-18 20:58 38.119791 -121.182464 138 19644ft 381kts
08-Aug-18 20:59 38.039709 -121.091908 137 22746ft 395kts
08-Aug-18 21:00 37.956489 -120.998103 137 25472ft 410kts
08-Aug-18 21:01 37.871109 -120.902158 137 27840ft 426kts
08-Aug-18 21:02 37.781284 -120.801554 136 29993ft 441kts
08-Aug-18 21:03 37.688511 -120.698005 136 31860ft 454kts
08-Aug-18 21:04 37.596120 -120.595260 136 35234ft 434kts
08-Aug-18 21:05 37.505498 -120.494770 136 36985ft 449kts
08-Aug-18 21:06 37.409683 -120.388930 136 36986ft 465kts
08-Aug-18 21:07 37.312584 -120.282058 137 36983ft 470kts
08-Aug-18 21:08 37.214678 -120.174678 137 36986ft 469kts
08-Aug-18 21:09 37.116740 -120.067633 137 37003ft 469kts
08-Aug-18 21:10 37.018572 -119.960706 137 37007ft 470kts
08-Aug-18 21:11 36.920034 -119.853801 138 37003ft 471kts
08-Aug-18 21:12 36.811163 -119.777383 155 37001ft 474kts
08-Aug-18 21:13 36.690765 -119.714216 155 37003ft 474kts
08-Aug-18 21:14 36.569638 -119.651328 155 37002ft 474kts
08-Aug-18 21:15 36.448290 -119.588530 155 36999ft 474kts
08-Aug-18 21:16 36.326995 -119.525992 155 36998ft 474kts
08-Aug-18 21:17 36.205410 -119.463496 155 36998ft 474kts
08-Aug-18 21:18 36.083952 -119.401290 155 36999ft 474kts
08-Aug-18 21:19 35.962754 -119.339423 156 37006ft 474kts
08-Aug-18 21:20 35.854351 -119.284259 156 36936ft 468kts
08-Aug-18 21:21 35.735490 -119.223961 156 36936ft 468kts
08-Aug-18 21:22 35.616340 -119.163709 156 34246ft 456kts
08-Aug-18 21:23 35.501134 -119.105620 156 30754ft 446kts
08-Aug-18 21:24 35.389494 -119.045092 155 27253ft 436kts
08-Aug-18 21:25 35.281035 -118.985740 155 23756ft 424kts
08-Aug-18 21:26 35.175692 -118.928264 155 20257ft 411kts
08-Aug-18 21:27 35.073347 -118.872681 156 16747ft 397kts
08-Aug-18 21:28 34.974779 -118.819340 155 13251ft 384kts
08-Aug-18 21:29 34.886308 -118.779835 161 11671ft 331kts
08-Aug-18 21:30 34.806548 -118.748655 161 10459ft 291kts
08-Aug-18 21:31 34.735323 -118.713942 156 9235ft 263kts
08-Aug-18 21:32 34.665564 -118.677998 156 9091ft 292kts
08-Aug-18 21:33 34.592540 -118.638554 154 9018ft 287kts
08-Aug-18 21:34 34.519421 -118.598774 155 8941ft 290kts
08-Aug-18 21:35 34.444440 -118.623089 203 7588ft 285kts
08-Aug-18 21:36 34.373290 -118.661440 202 6184ft 276kts
08-Aug-18 21:37 34.310069 -118.648839 106 5029ft 259kts
08-Aug-18 21:38 34.309506 -118.570890 86 5053ft 213kts
08-Aug-18 21:39 34.312726 -118.502586 90 4834ft 194kts
08-Aug-18 21:40 34.309884 -118.441594 115 3646ft 164kts
08-Aug-18 21:41 34.286724 -118.396780 124 2944ft 150kts
08-Aug-18 21:42 34.255590 -118.372690 168 2231ft 140kts
08-Aug-18 21:43 34.216887 -118.361669 167 957ft 137kts
08-Aug-18 21:44 34.196786 -118.357245 269 784ft 6kts
08-Aug-18 21:45 34.196835 -118.359340 271 784ft 13kts
08-Aug-18 21:46 34.197370 -118.360269 3 784ft 3kts
08-Aug-18 21:47 34.198937 -118.362832 270 784ft 12kts
08-Aug-18 21:48 34.199938 -118.365029 287 784ft 5kts
08-Aug-18 21:49 34.200129 -118.365051 90 784ft 0kts
08-Aug-18 21:50 34.200129 -118.365051 90 784ft 0kts
08-Aug-18 21:51 34.200129 -118.365051 90 784ft 0kts
08-Aug-18 21:52 34.200129 -118.365051 90 784ft 0kts

Navigation Log

Ident Type
Flight plan parsing failed, navigation log unavailable